Date,TemperatureHighF,TemperatureAvgF,TemperatureLowF,DewpointHighF,DewpointAvgF,DewpointLowF,HumidityHigh,HumidityAvg,HumidityLow,PressureMaxIn,PressureMinIn,WindSpeedMaxMPH,WindSpeedAvgMPH,GustSpeedMaxMPH,PrecipitationSumIn
2013-1-1,29.2,16.0,4.7,17.4,8.4,-1.5,88,73,51,30.24,30.02,7,0,7,0.00
2013-1-2,32.7,21.6,14.8,13.4,8.7,4.1,69,58,40,30.31,30.10,88,0,227,0.00
2013-1-3,51.8,20.3,10.5,8.9,3.3,-2.4,72,49,27,30.36,30.15,16,1,227,0.00
2013-1-4,43.1,29.0,12.5,19.8,9.8,-0.9,68,45,27,30.28,30.04,12,0,12,0.01
2013-1-5,37.6,26.1,16.2,19.1,12.7,6.8,75,58,35,30.27,30.05,85,1,85,0.00
2013-1-6,40.7,28.1,13.5,16.8,11.0,0.1,73,50,32,30.25,29.91,198,0,227,0.00
2013-1-7,51.1,36.3,24.4,25.8,17.6,10.6,76,48,24,30.09,29.84,14,0,227,0.00
2013-1-8,51.9,37.6,25.7,24.1,19.0,11.6,71,49,30,30.26,29.82,15,0,15,0.00
2013-1-9,60.0,38.2,23.7,26.1,19.8,11.5,71,50,21,30.29,29.83,19,1,19,0.00
2013-1-10,44.7,31.9,19.6,25.2,20.1,13.3,82,63,35,30.02,29.52,21,1,21,0.00
2013-1-11,44.9,24.2,3.6,27.5,15.0,-1.4,91,71,34,29.92,29.39,26,2,26,0.00
2013-1-12,10.8,3.7,-5.2,5.7,-2.0,-12.2,85,77,68,30.12,29.82,8,0,8,0.00
2013-1-13,118.8,2.7,-8.4,99.9,-4.3,-15.3,78,72,63,30.16,29.95,45,0,219,0.00
2013-1-14,10.7,1.9,-7.5,3.1,-4.1,-14.1,80,75,68,30.16,30.03,5,0,5,0.00
2013-1-15,33.1,16.6,-6.0,19.3,5.1,-14.1,78,61,40,30.19,30.05,10,0,10,0.00
2013-1-16,50.1,34.4,23.3,28.0,19.9,12.1,73,56,35,30.34,30.10,11,1,11,0.01
2013-1-17,48.8,32.9,21.5,25.6,20.3,12.1,75,61,36,30.43,30.19,10,0,227,0.00
2013-1-18,57.6,41.8,23.5,20.9,12.1,-5.6,68,32,15,30.26,30.06,105,2,227,0.00
2013-1-19,56.5,42.3,28.1,18.4,11.7,5.7,58,30,18,30.34,30.07,11,0,11,0.00
2013-1-20,44.1,30.5,19.1,19.4,15.0,9.4,83,55,28,30.33,30.12,16,1,16,0.00
2013-1-21,55.1,35.4,16.1,26.0,13.2,3.5,87,49,20,30.21,30.06,12,1,12,0.00
2013-1-22,61.1,44.4,23.8,14.3,6.1,-1.7,37,21,11,30.16,30.01,12,0,12,2.48
2013-1-23,58.2,45.1,31.8,17.0,5.7,-47.4,50,21,10,30.22,30.12,191,2,219,0.00
2013-1-24,62.6,42.7,26.1,27.4,19.9,14.7,69,44,18,30.24,29.98,14,0,14,0.00
2013-1-25,54.6,41.5,30.0,31.2,27.0,21.1,75,58,38,30.27,30.07,12,0,12,0.00
2013-1-26,51.2,38.4,26.5,35.4,29.1,20.3,91,70,48,30.17,29.80,8,0,9,0.04
2013-1-27,55.7,40.8,29.4,41.8,34.1,26.4,96,79,43,29.91,29.76,12,0,12,0.00
2013-1-28,49.2,35.7,24.3,33.8,25.6,19.2,94,69,36,29.91,29.62,25,2,25,0.02
2013-1-29,30.2,23.3,17.5,22.2,16.7,10.3,92,77,46,30.04,29.73,18,2,18,0.11
2013-1-30,34.7,22.6,4.8,19.2,10.3,-2.1,78,60,35,29.97,29.82,10,0,10,0.02
2013-1-31,39.4,29.6,18.9,28.6,21.3,12.2,86,71,46,30.15,29.90,13,0,13,0.00
2013-2-1,49.8,33.0,18.9,30.8,21.0,15.9,91,66,30,30.22,29.97,24,1,24,0.00
2013-2-2,54.9,35.8,22.6,25.8,19.6,16.0,81,56,24,30.41,30.18,13,1,13,0.00
2013-2-3,48.6,34.3,23.5,25.4,19.5,14.7,71,57,31,30.25,29.92,10,0,10,0.00
2013-2-4,53.9,36.7,24.2,22.2,15.6,10.1,67,45,19,30.10,29.88,16,0,16,0.00
2013-2-5,57.7,41.4,22.7,23.8,19.0,13.1,70,43,25,30.13,29.86,15,1,15,0.14
2013-2-6,54.9,41.8,-30.1,30.1,24.1,-47.3,78,50,31,30.10,29.82,179,1,227,0.00
2013-2-7,47.9,34.7,24.6,31.6,21.2,7.9,92,62,23,30.28,30.03,175,0,228,0.00
2013-2-8,48.7,32.8,20.7,25.3,18.7,13.0,77,58,30,30.04,29.75,12,0,228,0.00
2013-2-9,35.4,27.9,19.1,28.1,20.2,12.1,85,73,56,29.77,29.59,15,1,15,0.00
2013-2-10,34.9,26.9,17.4,21.2,15.0,8.1,84,62,34,30.07,29.65,22,3,22,0.00
2013-2-11,30.9,21.9,12.1,16.1,12.3,6.0,79,67,50,30.17,29.92,13,0,13,0.00
2013-2-12,40.5,26.0,12.3,14.2,6.5,-1.2,82,49,19,30.12,29.99,11,1,227,0.00
2013-2-13,48.4,32.9,18.3,14.5,10.9,4.0,59,41,24,30.07,29.93,18,2,19,0.00
2013-2-14,47.9,26.3,20.6,24.2,17.3,4.9,80,69,46,30.32,29.94,19,1,19,0.00
2013-2-15,38.4,25.7,18.0,17.9,14.0,9.3,78,63,30,30.29,30.19,32,3,32,0.00
2013-2-16,57.0,40.5,18.0,19.0,14.2,8.9,80,37,19,30.25,29.98,12,1,12,0.00
2013-2-17,61.6,43.6,27.0,21.3,8.3,0.3,70,27,9,30.09,29.58,22,4,22,0.00
2013-2-18,41.1,29.1,16.5,19.6,11.2,2.0,78,50,23,30.14,29.81,13,1,13,0.00
2013-2-19,46.2,27.2,14.3,15.5,10.2,2.1,70,50,26,30.16,29.77,36,0,36,0.00
2013-2-20,146.8,22.6,15.6,26.8,17.6,11.0,93,81,60,29.87,29.70,79,2,219,0.00
2013-2-21,23.1,16.8,12.8,17.7,13.1,9.4,90,85,79,29.92,29.75,38,1,227,0.06
2013-2-22,33.5,21.5,5.3,20.5,13.2,-0.2,86,71,51,30.07,29.84,11,0,11,0.04
2013-2-23,45.4,29.8,15.3,26.0,17.1,5.1,90,61,34,29.91,29.66,16,1,16,0.01
2013-2-24,28.2,25.4,15.6,27.1,23.9,12.7,96,94,89,30.18,29.75,23,4,23,0.05
2013-2-25,31.1,17.6,6.6,23.4,10.9,0.0,93,76,56,30.19,29.85,9,0,9,0.06
2013-2-26,30.7,22.5,10.4,27.5,18.8,-0.2,94,85,61,30.19,29.82,25,5,25,0.08
2013-2-27,34.4,23.2,9.0,20.0,12.2,1.9,76,63,38,30.33,30.11,23,1,23,0.45
2013-2-28,38.1,27.8,14.3,19.9,11.6,1.3,67,51,31,30.32,30.15,16,1,16,0.00
2013-3-1,44.4,31.4,20.6,27.7,20.8,11.7,78,65,47,30.37,30.20,10,0,227,0.00
2013-3-2,52.9,38.8,24.3,36.2,27.7,18.1,80,65,39,30.29,30.06,6,0,6,0.00
2013-3-3,60.1,48.3,35.7,33.3,28.3,23.5,79,47,27,30.11,29.68,18,1,18,0.00
2013-3-4,47.1,28.6,11.9,27.9,20.0,3.7,91,71,45,30.30,29.75,21,3,21,0.01
2013-3-5,37.2,23.3,6.9,26.0,14.6,-0.3,84,70,52,30.34,30.12,13,1,13,0.01
2013-3-6,56.1,35.7,20.5,34.2,26.4,16.9,89,72,27,30.14,29.88,12,0,12,0.01
2013-3-7,61.6,43.5,30.3,36.1,30.0,23.8,84,63,27,30.10,29.90,20,1,20,0.00
2013-3-8,42.1,34.6,27.5,34.5,30.4,24.9,93,85,72,30.01,29.74,39,0,39,0.00
2013-3-9,33.5,29.9,22.4,31.1,26.8,14.2,98,89,69,30.10,29.70,26,6,26,0.15
2013-3-10,36.2,28.7,20.6,26.0,20.4,14.8,81,71,61,30.24,30.03,40,0,40,0.10
2013-3-11,52.4,38.4,30.4,32.1,25.2,20.0,94,62,33,30.23,29.94,24,2,24,0.00
2013-3-12,141.3,29.6,23.9,31.1,25.9,21.4,95,86,73,30.37,30.15,164,0,227,0.11
2013-3-13,61.1,42.7,26.1,37.6,29.3,23.0,92,64,33,30.34,30.16,13,0,13,0.00
2013-3-14,67.4,53.2,36.6,37.6,30.8,23.8,68,44,27,30.37,30.15,13,0,13,0.00
2013-3-15,75.2,59.9,44.7,33.1,28.4,23.8,57,31,18,30.16,29.92,16,1,16,0.00
2013-3-16,55.4,46.2,39.3,36.1,33.2,29.1,78,61,38,30.10,29.87,47,1,227,0.00
2013-3-17,59.2,44.8,34.1,33.4,25.7,11.1,81,51,21,29.98,29.60,24,4,24,0.00
2013-3-18,49.8,38.1,23.5,16.3,9.9,-36.3,46,32,20,30.03,29.86,22,3,227,0.00
2013-3-19,51.8,37.0,24.4,18.4,12.4,3.9,68,40,15,30.34,29.96,37,1,227,0.00
2013-3-20,52.0,33.9,18.3,26.6,20.5,12.9,82,61,32,30.33,29.80,61,0,228,0.00
2013-3-21,59.2,42.4,31.0,35.3,25.5,7.2,76,53,28,29.90,29.60,34,1,228,0.00
2013-3-22,43.6,31.9,24.6,27.6,19.8,9.4,93,63,37,29.95,29.73,22,2,22,0.00
2013-3-23,26.4,18.0,12.3,24.6,15.4,8.7,93,89,85,30.26,29.91,21,4,21,0.03
2013-3-24,27.8,15.5,1.3,17.3,9.4,-4.0,88,77,61,30.28,30.08,61,1,227,0.20
2013-3-25,30.1,18.6,7.1,15.6,10.2,2.8,87,71,45,30.32,30.14,9,0,9,0.01
2013-3-26,41.6,27.6,14.1,33.2,20.7,3.2,86,75,63,30.24,29.93,11,1,227,0.01
2013-3-27,48.9,37.8,28.2,39.6,32.0,24.1,89,80,68,30.18,30.01,10,0,227,0.01
2013-3-28,61.9,45.0,31.7,41.3,35.0,29.4,96,72,34,30.15,30.03,11,0,12,0.00
2013-3-29,65.8,51.3,38.3,39.0,33.6,28.9,79,54,27,30.24,30.03,14,1,14,0.00
2013-3-30,65.4,50.3,37.6,40.3,35.4,29.3,90,60,29,30.25,30.05,20,1,21,0.00
2013-3-31,65.6,49.0,30.0,40.3,29.9,23.2,91,56,21,30.23,29.97,14,1,21,0.00
2013-4-1,54.2,41.1,27.3,37.1,31.3,24.0,89,70,47,30.22,30.01,16,2,16,0.00
2013-4-2,41.7,37.4,34.7,37.8,34.4,32.2,95,89,79,30.21,30.05,37,0,37,0.07
2013-4-3,58.2,43.8,34.3,43.2,33.8,10.5,97,73,28,30.22,30.06,131,0,227,0.02
2013-4-4,67.0,52.1,34.6,40.7,33.3,28.8,84,52,26,30.23,30.03,6,0,131,0.00
2013-4-5,71.3,57.9,46.1,36.4,30.7,25.7,58,38,19,30.08,29.77,29,1,29,0.00
2013-4-6,61.4,51.7,18.5,35.8,28.6,0.0,61,42,24,30.07,29.91,164,0,219,0.00
2013-4-7,65.1,51.5,-15.1,40.6,31.2,-32.9,92,50,24,29.99,29.77,191,2,227,0.00
2013-4-8,70.3,46.6,22.7,38.3,30.1,19.8,90,58,20,29.89,29.51,36,5,36,0.01
2013-4-9,22.6,15.0,9.8,19.9,10.9,5.3,90,83,76,30.28,29.88,24,7,24,0.00
2013-4-10,23.7,15.3,-37.0,16.3,8.3,-44.0,83,74,62,30.22,29.91,117,0,227,0.01
2013-4-11,47.6,33.4,15.3,37.4,26.3,-0.2,86,76,54,30.12,29.78,11,0,227,0.01
2013-4-12,56.7,39.6,30.5,39.6,32.0,26.6,92,75,35,30.07,29.92,23,1,23,0.00
2013-4-13,66.7,46.7,29.7,42.3,32.1,22.6,95,65,21,30.00,29.54,21,1,21,0.00
2013-4-14,47.7,40.7,32.2,38.8,20.0,5.0,94,49,19,29.86,29.60,30,6,30,0.14
2013-4-15,35.6,28.0,22.6,27.2,22.9,16.6,93,82,46,30.07,29.78,16,3,17,0.00
2013-4-16,35.9,29.6,22.2,30.7,26.2,20.2,96,87,80,30.17,29.86,21,4,227,0.28
2013-4-17,31.4,26.0,19.6,27.6,23.7,15.6,96,91,83,30.25,29.95,21,4,227,0.09
2013-4-18,34.2,24.6,11.3,21.2,15.1,6.1,85,68,47,30.22,30.08,16,1,192,0.00
2013-4-19,54.4,41.0,26.1,30.3,21.7,14.0,71,48,28,30.18,29.96,13,3,13,0.00
2013-4-20,56.2,44.5,31.0,37.5,32.1,24.9,89,64,38,30.16,29.90,13,3,13,0.00
2013-4-21,60.2,47.5,32.0,41.1,32.6,24.0,94,62,27,30.16,30.01,14,2,14,0.00
2013-4-22,48.2,33.3,22.4,39.9,29.3,16.5,94,86,67,30.29,29.94,60,3,227,0.03
2013-4-23,30.4,24.1,18.3,22.1,19.4,-9.6,93,83,68,30.30,30.09,75,3,227,0.21
2013-4-24,52.4,38.1,25.5,29.0,22.5,15.9,80,57,28,30.30,30.12,14,3,227,0.00
2013-4-25,63.9,47.1,30.9,33.6,27.6,22.6,78,50,22,30.21,29.95,13,2,14,0.00
2013-4-26,65.8,52.3,37.9,32.2,28.1,21.6,72,43,19,30.26,30.04,14,3,14,0.00
2013-4-27,72.2,57.3,38.9,32.9,28.2,23.1,68,37,17,30.32,30.08,17,4,17,0.00
2013-4-28,77.1,64.1,49.5,38.6,29.9,22.2,46,28,19,30.09,29.92,17,5,17,0.00
2013-4-29,78.1,64.6,43.4,42.3,34.2,27.4,73,36,17,30.05,29.72,17,5,17,0.00
2013-4-30,69.2,49.7,38.7,40.0,34.6,25.4,88,60,21,30.07,29.73,21,4,21,0.00
2013-5-1,38.9,30.2,25.1,35.7,28.3,23.0,97,93,87,30.56,30.06,20,4,20,0.23
2013-5-2,44.7,33.2,20.8,26.8,21.3,14.5,93,66,33,30.68,30.38,13,2,13,0.04
2013-5-3,59.7,44.7,28.8,32.5,26.2,21.8,77,52,28,30.39,30.07,15,2,15,0.00
2013-5-4,57.3,45.5,32.2,35.3,29.7,25.4,84,57,31,30.30,30.11,16,2,16,0.00
2013-5-5,61.2,46.0,30.3,35.6,29.2,23.4,77,54,28,30.26,30.09,60,2,219,0.00
2013-5-6,67.0,52.2,36.3,40.6,34.5,26.0,79,53,31,30.14,29.96,18,2,18,0.00
2013-5-7,68.3,53.8,42.5,46.5,41.0,36.9,89,65,34,30.12,29.90,20,2,20,0.38
2013-5-8,61.2,49.7,44.4,48.1,44.1,40.0,94,82,56,30.23,29.97,27,3,27,0.06
2013-5-9,58.4,49.6,43.3,48.9,43.9,39.7,95,82,62,30.31,30.10,14,2,14,0.09
2013-5-10,66.3,52.6,40.2,46.8,41.1,36.1,90,67,39,30.41,30.19,19,3,19,0.01
2013-5-11,67.8,54.3,42.7,47.6,42.2,37.4,85,65,35,30.42,30.24,15,2,15,0.00
2013-5-12,76.0,62.7,47.4,44.5,40.8,34.8,87,49,26,30.33,30.11,14,3,14,0.00
2013-5-13,83.3,70.1,58.1,50.4,42.8,36.7,65,39,23,30.24,30.11,14,3,14,0.00
2013-5-14,85.5,72.5,60.6,47.3,43.1,38.8,47,36,21,30.13,29.97,22,5,22,0.00
2013-5-15,80.1,64.5,54.9,52.3,47.5,41.8,89,57,30,30.15,29.95,17,2,17,0.36
2013-5-16,80.2,64.7,50.1,53.0,47.9,-35.0,90,59,26,30.07,29.88,73,2,227,0.00
2013-5-17,84.9,68.2,51.9,51.3,44.9,29.2,81,48,17,30.06,29.82,16,2,227,0.00
2013-5-18,75.8,63.3,50.8,48.4,39.0,27.3,65,42,24,30.01,29.83,25,2,25,0.08
2013-5-19,127.8,56.6,47.0,45.5,40.4,32.4,82,58,27,29.96,29.80,194,2,227,0.00
2013-5-20,63.3,53.8,46.2,47.5,42.0,37.8,86,65,41,30.07,29.91,24,4,24,0.02
2013-5-21,68.7,55.8,41.4,37.9,35.4,32.1,78,49,27,30.14,29.94,17,2,17,0.00
2013-5-22,74.6,57.0,39.3,49.0,40.5,32.4,80,58,27,30.15,29.94,17,2,17,0.04
2013-5-23,67.2,56.5,44.4,51.7,47.6,41.7,94,73,54,30.20,30.02,22,3,22,0.00
2013-5-24,82.0,65.2,46.5,58.0,47.7,-7.9,95,62,24,30.14,29.96,16,1,16,0.00
2013-5-25,85.3,69.3,53.7,57.5,50.3,40.5,92,57,22,30.15,29.89,12,1,12,0.00
2013-5-26,81.5,66.5,-50.9,56.9,36.2,-34.2,100,49,19,30.08,29.93,15,1,15,0.00
2013-5-27,81.8,69.1,-46.5,56.6,38.1,-57.4,100,37,15,30.04,29.80,13,1,13,0.00
2013-5-28,82.4,64.7,47.7,48.7,36.0,0.0,100,53,21,29.99,29.66,30,1,30,0.00
2013-5-29,63.2,54.5,47.8,51.0,44.6,0.0,100,75,50,29.83,29.71,14,1,14,0.19
2013-5-30,69.5,58.9,48.7,51.1,32.6,0.0,100,41,21,29.95,29.76,28,2,28,0.00
2013-5-31,71.4,59.9,45.1,34.7,24.1,0.0,100,31,16,30.16,29.91,19,1,19,0.00
2013-6-1,68.0,56.2,-24.6,47.6,36.4,-33.1,100,49,30,30.28,30.09,21,1,21,0.00
2013-6-2,83.3,62.7,14.1,49.9,35.4,0.0,100,42,21,30.24,29.90,13,0,13,0.00
2013-6-3,91.0,73.4,52.9,39.4,35.2,25.9,45,27,14,30.12,29.78,20,2,20,0.00
2013-6-4,73.4,59.8,48.9,52.5,46.9,31.2,92,65,31,30.25,30.00,8,0,12,0.09
2013-6-5,60.7,51.8,45.2,48.0,45.6,42.7,93,80,59,30.39,30.16,7,0,8,0.01
2013-6-6,77.9,60.9,43.3,52.5,43.3,0.0,100,60,26,30.24,30.08,16,0,17,0.00
2013-6-7,83.0,64.1,3.6,52.1,43.2,-8.9,100,51,27,30.26,29.88,13,1,17,0.00
2013-6-8,73.9,66.0,44.2,59.9,43.5,0.0,100,46,32,30.19,29.85,18,1,18,0.01
2013-6-9,87.2,69.6,48.0,48.4,40.9,0.0,100,43,21,30.20,29.98,12,1,12,0.00
2013-6-10,97.0,82.5,63.6,47.1,40.1,34.1,34,23,15,30.05,29.92,38,2,38,0.00
2013-6-11,98.7,80.6,-30.7,44.0,35.6,-45.4,100,23,9,30.08,29.86,34,2,34,0.00
2013-6-12,98.3,75.9,16.1,52.9,34.9,-12.7,100,25,15,30.22,29.86,16,1,34,0.00
2013-6-13,89.2,68.8,52.7,63.2,53.8,45.6,94,64,27,30.27,29.96,30,1,30,0.00
2013-6-14,87.6,73.3,62.0,60.1,47.7,40.3,71,43,21,30.17,29.96,18,2,18,0.00
2013-6-15,80.7,63.1,-46.4,63.9,49.4,-51.3,100,60,36,30.21,30.01,15,1,15,0.00
2013-6-16,84.8,70.5,57.9,52.5,45.1,35.2,71,44,20,30.25,30.09,28,1,28,0.00
2013-6-17,82.4,66.5,50.0,55.7,47.9,37.7,81,54,24,30.34,30.09,20,1,20,0.00
2013-6-18,83.2,66.9,52.0,59.5,50.3,40.4,95,60,26,30.28,29.96,21,1,21,0.00
2013-6-19,93.1,74.5,53.1,56.9,48.5,-47.3,100,49,13,30.15,29.76,17,2,17,0.00
2013-6-20,88.0,73.2,55.3,60.9,43.1,28.1,93,40,16,30.09,29.85,11,0,11,0.00
2013-6-21,93.8,75.6,59.3,61.3,48.9,32.0,80,46,13,30.08,29.86,14,1,14,0.00
2013-6-22,82.7,67.5,54.2,60.6,51.6,44.6,80,58,34,30.07,29.87,37,1,37,0.03
2013-6-23,83.8,64.2,50.9,55.9,50.6,42.7,92,66,27,30.17,29.90,25,1,25,0.33
2013-6-24,88.6,72.2,55.8,55.9,47.7,36.5,85,48,17,30.08,29.83,16,1,20,0.00
2013-6-25,89.8,76.7,61.7,49.1,40.9,35.6,49,29,18,30.13,29.90,18,1,18,0.00
2013-6-26,94.0,79.3,59.8,47.7,43.7,39.1,56,31,17,30.28,30.07,12,1,12,0.00
2013-6-27,93.3,80.5,64.1,49.9,46.2,42.5,48,31,19,30.33,30.13,14,1,14,0.00
2013-6-28,92.5,77.6,62.5,59.6,54.5,46.4,69,47,27,30.35,30.15,18,1,18,0.00
2013-6-29,85.7,72.4,-10.5,60.2,55.4,-14.5,100,58,33,30.38,30.16,13,0,13,0.00
2013-6-30,80.3,68.9,58.6,59.8,55.9,12.3,87,65,42,30.34,30.18,63,1,219,0.00
2013-7-1,79.0,67.1,55.2,58.0,53.6,48.3,92,65,36,30.39,30.22,16,1,219,0.02
2013-7-2,80.2,68.1,56.2,59.8,52.5,33.5,96,63,31,30.33,30.17,116,0,227,0.00
2013-7-3,125.6,71.1,55.9,94.0,47.7,40.5,80,47,24,30.24,29.99,183,0,227,0.00
2013-7-4,90.1,75.8,30.2,51.4,47.6,7.1,60,39,21,30.17,29.98,188,2,227,0.00
2013-7-5,88.8,73.7,60.8,58.4,53.0,47.8,70,50,29,30.05,29.92,19,2,19,0.00
2013-7-6,89.3,76.2,64.1,57.8,52.4,47.1,76,46,26,30.14,29.94,46,3,47,0.00
2013-7-7,90.0,75.8,64.4,60.1,54.5,48.4,72,49,25,30.17,30.01,14,2,14,0.00
2013-7-8,92.1,77.7,63.0,59.8,52.8,46.9,79,46,23,30.20,30.09,20,2,30,0.00
2013-7-9,95.6,80.7,63.5,52.0,47.1,40.4,58,34,17,30.26,30.16,14,2,14,0.00
2013-7-10,90.3,74.2,58.0,61.8,56.9,0.0,85,58,31,30.36,30.09,177,2,219,0.00
2013-7-11,97.0,80.1,24.6,63.0,56.0,16.2,73,47,20,30.26,29.96,26,2,227,0.00
2013-7-12,91.1,75.7,66.8,64.0,57.9,52.2,88,57,28,30.21,30.00,19,2,227,0.05
2013-7-13,88.8,72.2,61.4,65.8,61.9,55.8,100,75,33,30.24,30.08,51,2,51,1.25
2013-7-14,79.6,68.5,60.0,67.8,63.7,59.9,100,86,58,30.35,30.12,15,2,15,0.17
2013-7-15,77.7,69.2,62.3,66.6,60.2,48.4,100,76,42,30.31,30.16,14,1,14,0.00
2013-7-16,81.7,68.6,56.9,55.7,52.8,49.0,82,60,34,30.28,30.18,14,2,14,0.00
2013-7-17,88.8,80.6,71.8,55.2,53.0,49.8,55,40,29,30.20,30.15,15,2,15,0.00
2013-7-18,89.9,73.4,61.2,60.2,56.9,51.9,85,59,31,30.31,30.12,21,3,21,0.01
2013-7-19,76.7,69.9,63.1,64.1,59.7,57.5,86,71,53,30.33,30.15,15,1,15,0.00
2013-7-20,88.6,70.3,59.1,64.4,58.1,46.3,97,71,27,30.21,29.99,21,2,21,0.03
2013-7-21,87.6,71.2,55.9,66.2,58.2,47.1,97,67,33,30.08,29.97,11,1,11,0.00
2013-7-22,89.7,76.2,60.3,66.5,56.0,45.8,89,53,24,30.15,29.97,15,3,15,0.00
2013-7-23,85.3,74.1,60.8,61.9,54.8,43.9,72,52,36,30.28,30.02,13,3,13,0.00
2013-7-24,83.3,73.2,58.9,65.3,59.1,49.8,91,63,38,30.30,30.07,25,4,25,0.00
2013-7-25,76.0,65.3,55.8,61.9,56.8,52.7,96,76,54,30.34,30.14,13,1,20,0.01
2013-7-26,87.2,70.3,23.8,58.1,53.7,18.5,85,59,25,30.36,30.17,121,1,219,0.00
2013-7-27,75.1,64.2,54.3,60.9,55.8,49.5,99,75,61,30.24,30.10,13,1,13,0.07
2013-7-28,72.6,63.9,58.3,63.9,60.7,58.2,100,90,71,30.17,30.00,7,0,7,0.01
2013-7-29,75.3,63.7,56.4,65.0,58.0,50.8,100,84,44,30.23,30.02,13,2,227,0.01
2013-7-30,87.2,70.5,57.1,59.4,54.7,48.8,88,62,27,30.30,30.20,16,2,22,0.02
2013-7-31,88.0,71.1,55.6,60.7,55.3,49.2,88,62,28,30.36,30.17,29,2,29,0.26
2013-8-1,65.4,65.2,65.1,60.6,60.1,59.4,85,84,82,30.29,30.27,12,6,12,0.00
2013-8-3,89.3,71.8,60.8,67.7,59.3,51.2,94,70,29,25.28,25.07,31,6,31,0.24
2013-8-4,87.8,71.3,56.7,64.7,57.6,48.2,96,66,27,25.27,25.11,18,2,19,0.00
2013-8-5,86.2,71.8,59.8,62.4,56.5,52.0,85,61,33,25.22,25.06,27,2,28,0.44
2013-8-6,112.8,72.5,60.3,60.6,53.9,45.9,84,55,28,25.16,25.01,126,2,227,0.00
2013-8-7,71.5,65.0,59.4,61.8,57.9,52.0,95,79,57,25.17,25.04,15,1,15,0.00
2013-8-8,75.1,62.4,52.7,64.8,57.3,0.0,100,85,51,25.21,25.07,190,1,227,0.00
2013-8-9,79.0,63.7,52.4,59.8,53.6,47.7,93,72,36,25.32,25.16,158,1,227,0.71
2013-8-10,83.6,67.7,51.6,59.6,53.0,44.1,98,64,29,25.27,25.11,81,1,227,0.00
2013-8-11,80.3,69.1,57.7,59.4,53.8,47.5,84,61,35,25.33,25.15,10,0,11,0.01
2013-8-12,80.7,65.6,55.0,61.9,57.2,52.4,97,76,41,25.34,25.15,20,1,20,0.01
2013-8-13,79.8,66.7,55.3,58.1,53.7,48.9,94,66,36,25.24,25.16,16,2,18,0.00
2013-8-14,80.7,66.6,55.2,60.1,53.1,41.1,100,67,28,25.27,25.07,16,1,16,0.00
2013-8-15,83.0,67.9,52.8,59.2,51.7,45.8,87,60,29,25.23,25.13,12,2,12,0.00
2013-8-16,87.0,72.9,56.5,58.3,51.0,38.8,70,49,25,25.25,25.13,43,2,218,0.00
2013-8-17,92.7,75.9,58.3,58.4,50.7,37.6,89,47,16,25.19,25.05,13,2,13,0.00
2013-8-18,92.0,74.4,60.1,61.1,55.1,45.2,89,55,20,25.17,25.07,20,3,20,0.27
2013-8-19,91.3,76.4,58.1,56.3,51.0,46.4,80,45,22,25.20,25.05,13,2,13,0.00
2013-8-20,94.9,80.9,63.4,52.7,47.0,41.8,56,32,17,25.12,25.00,16,3,16,0.00
2013-8-21,87.8,75.7,66.0,58.1,51.6,43.5,66,44,28,25.26,25.07,31,2,31,0.06
2013-8-22,83.0,69.8,61.6,66.0,60.2,55.0,90,73,46,25.27,25.13,19,2,19,0.01
2013-8-23,86.1,71.6,60.9,61.6,57.1,51.6,81,63,31,25.23,24.99,23,2,23,0.12
2013-8-24,84.5,71.0,55.2,60.9,56.3,51.8,91,63,34,25.20,25.05,14,1,14,0.00
2013-8-25,90.3,75.2,61.5,59.9,56.2,50.1,83,55,27,25.23,25.08,13,1,13,0.00
2013-8-26,89.5,74.9,59.4,62.6,58.0,54.4,89,59,33,25.19,25.09,14,2,220,0.00
2013-8-27,90.9,76.8,64.4,61.3,57.5,51.3,80,54,27,25.15,25.08,11,2,12,0.00
2013-8-28,91.3,76.7,63.5,60.4,53.5,45.1,78,48,23,25.27,25.07,10,0,10,0.00
2013-8-29,93.3,77.9,63.3,54.9,51.9,48.1,67,43,23,25.31,25.10,13,1,13,0.00
2013-8-30,90.3,75.5,64.4,57.8,54.0,6.6,66,49,27,25.29,25.13,104,1,227,0.00
2013-8-31,90.5,75.7,61.7,60.7,53.6,48.4,80,49,26,25.16,25.06,18,2,18,0.00
2013-9-1,77.4,69.5,62.3,62.0,57.5,53.4,75,66,52,25.25,25.10,12,1,12,0.00
2013-9-2,91.8,73.7,57.6,63.5,56.5,36.2,93,60,26,25.23,25.05,134,1,219,0.00
2013-9-3,93.1,78.4,63.6,58.4,54.6,49.9,75,47,25,25.16,25.07,12,1,12,0.00
2013-9-4,90.3,77.6,67.1,58.2,55.6,52.4,65,48,30,25.20,25.19,11,0,16,0.00
2013-9-5,94.0,75.6,60.0,61.2,57.1,51.4,86,57,26,25.17,25.17,15,1,219,0.02
2013-9-6,94.6,77.3,62.2,57.3,52.0,46.5,66,44,21,25.20,25.06,18,2,18,0.00
2013-9-7,93.3,75.7,56.4,55.8,48.8,37.9,80,43,19,25.26,25.03,11,1,11,0.00
2013-9-8,91.7,74.5,57.6,52.5,48.9,41.9,64,42,23,25.19,24.91,15,1,15,0.00
2013-9-9,82.8,67.2,58.6,59.9,55.3,50.0,98,69,36,25.11,24.92,34,2,34,1.10
2013-9-10,69.5,53.6,-12.9,62.8,51.0,-13.1,100,95,77,25.23,25.08,114,1,228,0.42
2013-9-11,68.5,62.2,58.9,65.0,60.9,58.6,100,96,79,25.33,25.13,20,2,228,1.84
2013-9-12,62.7,60.5,58.2,62.7,60.5,58.1,100,100,100,25.39,25.19,18,4,18,1.65
2013-9-13,76.5,64.6,58.1,65.5,61.4,58.1,100,91,59,25.21,24.94,12,1,12,0.40
2013-9-14,76.0,59.8,-41.2,63.9,56.6,-41.4,100,85,52,25.10,24.93,13,1,13,0.10
2013-9-15,60.7,56.3,-1.7,59.2,55.8,-2.1,100,98,91,25.29,25.02,14,1,14,0.27
2013-9-16,73.0,61.4,53.2,61.4,56.7,53.2,100,86,64,25.27,25.06,12,1,12,0.04
2013-9-17,82.8,68.2,54.0,56.5,51.6,13.6,94,61,27,25.12,24.87,133,1,227,0.04
2013-9-18,84.2,68.7,58.3,55.3,51.5,46.0,79,57,27,25.05,24.82,19,2,19,0.04
2013-9-19,64.1,57.5,50.3,50.1,45.7,41.8,83,66,48,25.26,24.91,13,1,13,0.04
2013-9-20,71.0,57.4,46.5,52.6,47.1,41.4,94,71,35,25.27,25.02,132,0,219,0.04
2013-9-21,80.8,65.3,49.4,53.6,48.2,42.6,92,59,27,25.07,24.86,13,1,13,0.04
2013-9-22,81.1,66.6,55.3,56.2,49.5,44.0,97,57,32,24.92,24.68,29,2,227,0.17
2013-9-23,66.5,57.0,49.3,55.0,44.7,35.1,100,68,33,25.07,24.63,28,5,28,0.60
2013-9-24,73.3,57.1,41.0,52.6,40.4,35.8,83,57,29,25.14,24.89,198,2,227,0.00
2013-9-25,82.8,62.6,43.9,53.9,42.3,36.8,91,54,21,24.66,24.63,19,3,227,0.00
2013-9-26,67.5,55.9,42.6,52.1,45.7,38.4,88,70,45,24.93,24.64,10,1,10,0.00
2013-9-27,52.7,46.2,40.4,49.8,45.3,39.6,100,97,83,25.10,24.75,13,1,13,1.42
2013-9-28,66.5,50.2,35.7,41.8,35.3,29.1,97,61,28,25.12,25.11,7,1,9,0.01
2013-9-29,75.5,60.6,42.6,44.5,38.2,31.5,72,46,24,25.12,24.90,9,1,11,0.00
2013-9-30,81.5,66.9,52.0,52.2,41.2,30.8,66,41,24,25.07,24.83,47,1,47,0.00
2013-10-1,71.8,60.1,46.8,45.9,41.7,32.7,80,52,36,25.11,24.93,15,2,15,0.00
2013-10-2,116.5,60.2,47.8,47.7,43.9,37.7,82,58,28,25.05,24.91,16,2,227,0.00
2013-10-3,62.5,49.7,38.3,49.6,43.3,34.9,100,80,60,25.00,24.75,16,2,16,0.00
2013-10-4,47.2,36.9,28.2,47.0,32.6,22.4,100,85,58,25.17,24.81,24,6,24,0.27
2013-10-5,59.4,42.4,27.5,30.2,23.7,-0.1,84,54,19,25.26,25.05,87,3,227,0.00
2013-10-6,67.0,49.8,32.1,41.3,31.3,21.2,77,52,29,25.35,25.15,8,1,8,0.00
2013-10-7,84.3,57.4,40.4,38.9,35.0,31.2,79,48,19,25.25,24.93,105,2,219,0.00
2013-10-8,77.8,62.0,49.1,40.9,35.5,30.4,62,39,20,24.98,24.76,15,2,15,0.00
2013-10-9,64.1,53.6,44.5,45.1,41.2,34.9,89,64,44,25.07,24.85,13,2,13,0.00
2013-10-10,62.2,48.3,40.6,50.9,44.2,38.3,96,86,66,25.04,24.60,21,2,21,0.10
2013-10-11,60.0,51.1,42.1,42.3,38.4,32.2,89,64,38,25.07,24.56,12,2,12,0.00
2013-10-12,58.7,47.2,39.4,45.6,40.3,35.3,98,78,52,25.24,25.05,13,2,13,0.00
2013-10-13,67.4,49.4,34.2,51.8,41.7,31.8,96,76,45,25.20,24.90,21,2,21,0.00
2013-10-14,50.4,44.3,38.3,44.8,39.3,31.2,97,83,67,25.25,24.84,19,2,19,0.08
2013-10-15,43.2,36.5,31.2,31.9,27.8,25.3,83,71,55,25.27,25.16,11,2,11,0.00
2013-10-16,52.4,38.1,25.5,32.8,26.4,-59.6,88,66,33,25.19,24.99,8,1,227,1.03
2013-10-17,46.4,38.6,31.0,34.0,30.2,23.8,89,72,59,25.12,24.99,11,2,11,0.00
2013-10-18,42.6,34.3,28.8,35.1,29.1,25.7,97,83,54,25.20,25.05,15,2,15,0.17
2013-10-19,63.5,47.9,31.8,29.7,26.7,22.4,87,47,24,25.19,24.89,14,3,14,0.00
2013-10-20,47.4,40.3,35.7,37.7,33.0,25.2,96,77,42,25.15,24.90,12,2,12,0.11
2013-10-21,36.4,32.3,29.4,33.8,30.7,28.3,98,94,89,25.17,25.09,11,2,11,0.00
2013-10-22,64.0,50.3,37.1,36.9,33.4,28.5,73,54,32,0.00,40.00,6,2,11,0.00
2013-10-23,62.5,52.0,37.4,39.3,35.4,30.2,77,55,34,25.32,25.13,9,1,14,0.00
2013-10-24,54.3,41.0,30.0,41.7,35.7,27.8,99,82,61,25.31,25.16,9,1,9,0.00
2013-10-25,68.4,49.3,33.0,43.7,34.9,29.3,92,63,24,25.30,25.17,8,2,219,0.00
2013-10-26,62.6,49.2,36.8,40.9,35.3,29.3,83,60,34,25.40,25.11,119,2,227,0.00
2013-10-27,69.3,53.1,-16.0,34.8,29.4,-31.5,78,45,19,25.14,24.88,179,2,227,0.00
2013-10-28,47.6,34.7,30.6,33.6,30.9,28.1,97,87,51,25.15,24.88,12,2,227,0.00
2013-10-29,37.9,33.6,31.2,35.4,32.1,29.5,98,94,86,25.07,24.85,8,1,8,0.07
2013-10-30,47.0,37.7,15.8,42.2,34.8,15.1,100,90,68,24.95,24.81,175,2,227,0.02
2013-10-31,53.4,42.0,28.8,31.7,26.1,22.1,93,56,30,24.94,24.85,20,3,20,0.00
2013-11-1,51.9,41.1,-6.0,33.3,27.6,-56.6,83,60,39,25.19,24.90,179,2,228,0.00
2013-11-2,65.4,43.0,25.3,34.1,26.3,0.0,79,56,27,25.27,24.77,196,2,227,0.00
2013-11-3,66.1,48.2,33.5,31.3,26.6,16.4,88,48,19,24.87,24.63,18,2,18,0.00
2013-11-4,42.7,33.0,24.7,30.1,20.8,14.4,92,63,35,25.06,24.88,15,2,15,0.00
2013-11-5,42.4,32.0,18.5,27.2,16.0,8.1,86,54,27,25.24,24.88,18,4,18,0.00
2013-11-6,52.1,36.5,21.0,19.1,13.8,4.3,64,41,27,25.38,25.04,14,3,14,0.00
2013-11-7,59.4,40.7,23.2,27.2,21.4,14.0,70,48,27,25.35,24.98,11,2,11,0.00
2013-11-8,64.2,50.5,37.2,29.5,23.3,18.4,51,35,23,25.12,24.84,17,2,17,0.00
2013-11-9,60.2,44.0,30.9,33.6,27.6,20.6,78,55,33,25.28,25.01,13,3,13,0.00
2013-11-10,66.3,46.4,28.5,33.7,26.7,21.3,82,51,22,25.29,25.13,10,2,10,0.00
2013-11-11,62.5,39.1,28.2,32.1,25.3,20.3,88,62,24,25.62,25.14,22,4,22,0.00
2013-11-12,59.4,38.3,28.6,35.7,29.8,23.4,90,74,34,25.58,25.39,159,3,227,0.00
2013-11-13,69.5,55.0,34.6,30.6,21.2,14.0,73,29,13,25.24,25.00,15,2,227,0.00
2013-11-14,101.4,47.0,38.6,37.3,30.9,21.2,71,54,33,25.09,24.78,183,3,227,0.00
2013-11-15,63.6,46.6,32.5,30.0,24.4,19.2,81,47,19,24.79,24.55,14,2,14,0.00
2013-11-16,59.9,44.6,28.2,30.9,23.6,17.5,75,47,21,24.62,24.40,20,4,20,0.00
2013-11-17,52.4,38.1,26.0,28.1,20.4,14.3,84,53,27,25.04,24.60,19,3,19,0.00
2013-11-18,63.6,39.9,24.2,24.1,18.1,12.4,69,45,19,25.12,24.99,11,2,11,0.00
2013-11-19,59.2,46.5,30.5,28.1,22.0,13.0,54,38,27,25.12,24.75,17,3,17,0.00
2013-11-20,58.2,44.3,25.0,32.8,26.9,20.2,85,52,30,25.02,24.80,18,2,18,0.00
2013-11-21,24.9,15.5,13.0,20.9,10.1,6.0,86,79,72,25.47,25.01,16,2,16,0.00
2013-11-22,49.8,24.5,15.6,20.0,14.4,7.0,78,66,35,25.49,25.36,158,2,227,0.04
2013-11-23,34.9,27.8,22.1,24.8,20.1,8.7,84,73,47,25.29,25.23,8,2,12,0.01
2013-11-24,33.7,26.0,20.0,27.3,20.5,14.7,87,80,67,25.24,24.94,14,1,14,0.00
2013-11-25,57.4,33.4,28.5,30.1,24.1,16.8,83,69,47,25.25,24.98,18,3,227,0.01
2013-11-26,46.4,34.3,26.6,29.3,23.5,19.8,87,67,37,25.39,25.17,11,2,11,0.00
2013-11-27,62.4,41.3,25.3,25.3,21.6,17.2,77,50,21,25.27,24.98,12,2,13,0.00
2013-11-28,49.4,34.8,23.5,30.2,24.3,16.4,82,66,46,25.19,25.07,95,2,227,0.00
2013-11-29,59.7,42.5,28.3,27.0,23.3,18.8,78,50,26,25.18,25.05,12,2,12,0.00
2013-11-30,59.4,42.6,28.8,26.0,18.9,14.8,61,41,20,25.24,25.07,46,2,46,0.00
2013-12-1,55.4,41.9,29.9,25.7,20.1,13.7,59,42,27,25.12,24.84,12,3,12,0.00
2013-12-2,60.8,49.7,37.6,29.5,23.6,20.5,54,37,24,24.92,24.61,23,3,23,0.00
2013-12-3,55.4,31.8,11.0,28.6,17.1,5.4,79,57,28,24.85,24.55,18,4,18,0.00
2013-12-4,11.0,4.7,-8.5,5.7,-2.5,-16.7,79,71,64,25.02,24.74,14,2,14,0.00
2013-12-5,7.1,-2.2,-13.2,-1.0,-9.8,-22.2,76,69,63,25.12,24.92,13,2,14,0.00
2013-12-6,8.1,-0.1,-6.6,-1.4,-7.0,-13.1,77,72,60,25.19,25.03,37,1,227,0.91
2013-12-7,8.6,1.7,-9.7,1.1,-4.6,-16.0,78,74,70,25.05,24.75,64,1,227,0.91
2013-12-8,15.3,5.9,-0.3,7.4,-0.2,-7.3,80,75,68,24.99,24.69,7,0,8,0.00
2013-12-9,114.8,10.7,-6.0,7.0,-1.4,-13.8,74,59,37,25.10,24.94,30,3,227,0.00
2013-12-10,44.3,28.6,10.5,18.5,10.4,-4.2,72,47,31,25.20,24.89,16,4,18,0.03
2013-12-11,34.9,18.8,8.8,18.9,11.5,2.5,81,73,59,25.26,25.16,77,0,218,0.00
2013-12-12,51.2,30.1,12.0,27.9,17.6,4.7,81,61,35,25.34,24.92,9,1,9,0.00
2013-12-13,46.7,33.1,21.2,24.4,17.7,10.2,77,54,30,25.12,24.83,14,1,17,0.00
2013-12-14,56.4,32.5,22.7,47.9,16.9,13.0,77,55,31,25.30,25.09,197,2,227,0.00
2013-12-15,56.7,41.5,22.3,23.4,17.8,-17.1,70,41,24,25.25,25.05,155,4,219,0.00
2013-12-16,61.7,48.8,36.4,21.2,16.4,9.9,37,28,18,25.29,25.05,18,2,19,0.00
2013-12-17,61.7,43.6,27.8,22.7,17.0,11.5,58,36,19,25.30,25.03,11,2,11,0.00
2013-12-18,64.5,52.2,39.9,24.3,17.7,14.1,38,26,18,25.06,24.74,18,4,19,0.00
2013-12-19,49.5,31.4,14.2,24.9,18.3,9.2,84,60,27,24.95,24.60,190,1,227,0.00
2013-12-20,23.7,18.2,14.5,18.9,14.5,10.4,88,85,80,24.89,24.66,18,0,18,0.00
2013-12-21,37.9,20.1,8.7,25.4,15.9,4.5,90,84,53,24.89,24.58,78,0,219,0.00
2013-12-22,39.2,26.3,14.5,24.1,16.0,10.3,90,68,35,25.19,24.86,13,1,13,0.01
2013-12-23,39.4,28.2,10.2,27.6,20.6,6.2,87,73,56,25.25,25.05,10,0,11,0.03
2013-12-24,51.2,36.5,17.7,29.5,22.0,10.3,76,56,39,25.25,24.96,21,4,227,0.00
2013-12-25,42.4,26.8,11.5,22.2,11.3,5.5,81,55,27,25.36,25.13,16,2,16,0.00
2013-12-26,50.7,37.3,24.9,17.8,12.0,5.2,58,36,24,25.33,25.13,14,1,15,0.00
2013-12-27,57.6,40.8,27.2,24.2,18.5,12.8,58,42,26,25.30,25.02,13,1,24,0.00
2013-12-28,56.4,36.7,19.7,25.7,20.4,13.4,81,54,29,25.19,24.82,20,2,20,0.01
2013-12-29,35.1,22.9,7.8,18.4,12.3,2.1,81,65,37,25.25,24.88,12,0,12,0.00
2013-12-30,45.9,33.7,22.0,17.6,14.3,11.2,73,47,27,25.20,24.93,11,0,11,0.00
2013-12-31,55.6,41.8,26.6,23.1,19.1,13.4,62,41,27,25.07,24.91,15,1,15,0.00
2014-1-1,111.9,29.6,14.0,31.6,23.1,0.0,90,78,45,25.30,24.89,151,1,227,0.04
2014-1-2,44.7,25.6,12.5,27.6,18.6,7.8,88,76,43,25.29,24.98,10,0,12,0.01